createdAt,value
2023-04-23T00:01:35.414Z,13.51
2023-04-23T00:04:08.853Z,13.48
2023-04-23T00:06:43.734Z,13.50
2023-04-23T00:09:17.022Z,13.48
2023-04-23T00:11:49.467Z,13.43
2023-04-23T00:14:21.778Z,13.45
2023-04-23T00:16:49.066Z,13.50
2023-04-23T00:19:25.171Z,13.54
2023-04-23T00:21:54.653Z,13.52
2023-04-23T00:24:22.282Z,13.53
2023-04-23T00:26:49.393Z,13.57
2023-04-23T00:29:16.562Z,13.64
2023-04-23T00:31:43.813Z,13.59
2023-04-23T00:34:11.180Z,13.57
2023-04-23T00:36:41.275Z,13.55
2023-04-23T00:39:11.721Z,13.48
2023-04-23T00:41:40.089Z,13.56
2023-04-23T00:44:08.822Z,13.41
2023-04-23T00:46:37.284Z,13.21
2023-04-23T00:49:04.421Z,13.14
2023-04-23T00:51:34.606Z,13.19
2023-04-23T00:54:01.809Z,13.14
2023-04-23T00:56:29.067Z,12.99
2023-04-23T00:58:56.523Z,13.08
2023-04-23T01:01:24.483Z,13.02
2023-04-23T01:03:53.337Z,12.88
2023-04-23T01:06:21.526Z,12.81
2023-04-23T01:08:48.854Z,12.86
2023-04-23T01:11:16.724Z,12.94
2023-04-23T01:13:43.998Z,12.95
2023-04-23T01:16:14.749Z,13.12
2023-04-23T01:18:41.962Z,13.20
2023-04-23T01:21:12.009Z,13.12
2023-04-23T01:23:39.759Z,13.09
2023-04-23T01:26:07.349Z,13.05
2023-04-23T01:28:35.162Z,13.11
2023-04-23T01:31:02.659Z,13.11
2023-04-23T01:33:32.083Z,13.10
2023-04-23T01:36:03.037Z,13.15
2023-04-23T01:38:32.068Z,13.25
2023-04-23T01:40:59.236Z,13.27
2023-04-23T01:43:45.457Z,13.37
2023-04-23T01:46:16.056Z,13.60
2023-04-23T01:48:46.313Z,13.61
2023-04-23T01:51:13.543Z,13.48
2023-04-23T01:53:40.803Z,13.46
2023-04-23T01:56:11.716Z,13.45
2023-04-23T01:58:41.280Z,13.36
2023-04-23T02:01:08.493Z,13.30
2023-04-23T02:03:36.194Z,13.30
2023-04-23T02:06:05.050Z,13.25
2023-04-23T02:08:35.665Z,13.24
2023-04-23T02:11:10.932Z,13.27
2023-04-23T02:13:38.161Z,13.18
2023-04-23T02:16:05.934Z,13.13
2023-04-23T02:18:33.129Z,13.10
2023-04-23T02:21:00.430Z,13.10
2023-04-23T02:23:27.541Z,13.00
2023-04-23T02:25:54.937Z,13.03
2023-04-23T02:28:22.092Z,13.11
2023-04-23T02:30:49.277Z,13.18
2023-04-23T02:33:16.848Z,13.18
2023-04-23T02:35:43.938Z,13.12
2023-04-23T02:38:15.101Z,13.14
2023-04-23T02:40:42.245Z,13.05
2023-04-23T02:43:09.387Z,13.10
2023-04-23T02:45:40.264Z,12.90
2023-04-23T02:48:25.492Z,12.80
2023-04-23T02:51:05.218Z,12.72
2023-04-23T02:53:32.560Z,12.65
2023-04-23T02:55:59.835Z,12.60
2023-04-23T02:58:40.341Z,12.56
2023-04-23T03:01:08.879Z,12.57
2023-04-23T03:03:40.939Z,12.55
2023-04-23T03:06:11.227Z,12.53
2023-04-23T03:08:40.389Z,12.52
2023-04-23T03:11:07.621Z,12.43
2023-04-23T03:13:34.850Z,12.47
2023-04-23T03:16:02.118Z,12.52
2023-04-23T03:18:29.264Z,12.49
2023-04-23T03:20:57.437Z,12.45
2023-04-23T03:23:24.864Z,12.38
2023-04-23T03:25:51.974Z,12.45
2023-04-23T03:28:19.087Z,12.61
2023-04-23T03:30:46.207Z,12.53
2023-04-23T03:33:13.352Z,12.52
2023-04-23T03:35:40.947Z,12.64
2023-04-23T03:38:13.098Z,12.66
2023-04-23T03:40:41.687Z,12.66
2023-04-23T03:43:10.275Z,12.72
2023-04-23T03:45:55.690Z,12.70
2023-04-23T03:48:23.388Z,12.83
2023-04-23T03:50:50.659Z,12.90
2023-04-23T03:53:36.500Z,13.11
2023-04-23T03:56:21.887Z,13.11
2023-04-23T03:59:07.530Z,13.10
2023-04-23T04:01:36.349Z,13.18
2023-04-23T04:04:03.811Z,13.16
2023-04-23T04:06:33.316Z,13.05
2023-04-23T04:09:00.614Z,12.92
2023-04-23T04:11:28.652Z,12.64
2023-04-23T04:13:55.761Z,12.55
2023-04-23T04:16:23.178Z,12.43
2023-04-23T04:18:50.425Z,12.35
2023-04-23T04:21:19.097Z,12.33
2023-04-23T04:23:46.304Z,12.25
2023-04-23T04:26:15.210Z,12.20
2023-04-23T04:31:29.859Z,12.06
2023-04-23T04:33:59.563Z,12.15
2023-04-23T04:36:38.596Z,11.99
2023-04-23T04:39:09.181Z,12.01
2023-04-23T04:41:39.957Z,12.03
2023-04-23T04:44:12.608Z,12.21
2023-04-23T04:46:44.575Z,12.13
2023-04-23T04:49:22.547Z,12.22
2023-04-23T04:51:55.671Z,12.38
2023-04-23T04:54:29.995Z,12.25
2023-04-23T04:57:09.446Z,12.37
2023-04-23T04:59:48.962Z,12.55
2023-04-23T05:02:16.717Z,12.53
2023-04-23T05:04:44.195Z,12.60
2023-04-23T05:07:15.580Z,12.68
2023-04-23T05:09:48.519Z,12.86
2023-04-23T05:12:22.738Z,13.11
2023-04-23T05:14:53.086Z,13.20
2023-04-23T05:17:22.985Z,13.17
2023-04-23T05:20:01.986Z,13.24
2023-04-23T05:22:35.268Z,13.43
2023-04-23T05:25:07.802Z,13.43
2023-04-23T05:27:37.322Z,13.30
2023-04-23T05:30:14.519Z,13.11
2023-04-23T05:32:43.917Z,13.09
2023-04-23T05:35:11.060Z,13.25
2023-04-23T05:37:38.265Z,13.41
2023-04-23T05:40:09.368Z,13.38
2023-04-23T05:42:42.296Z,13.25
2023-04-23T05:45:12.520Z,13.12
2023-04-23T05:47:43.408Z,13.03
2023-04-23T05:50:11.792Z,13.11
2023-04-23T05:52:40.530Z,13.22
2023-04-23T05:55:13.961Z,13.58
2023-04-23T05:57:41.426Z,14.12
2023-04-23T06:00:11.848Z,14.70
2023-04-23T06:05:28.881Z,15.23
2023-04-23T06:07:56.166Z,15.67
2023-04-23T06:10:23.398Z,16.36
2023-04-23T06:12:50.509Z,16.76
2023-04-23T06:15:17.634Z,17.19
2023-04-23T06:17:44.772Z,17.76
2023-04-23T06:20:12.146Z,18.25
2023-04-23T06:22:40.679Z,18.60
2023-04-23T06:25:21.878Z,18.44
2023-04-23T06:27:51.713Z,17.75
2023-04-23T06:30:23.372Z,17.03
2023-04-23T06:32:50.679Z,16.61
2023-04-23T06:35:17.947Z,16.43
2023-04-23T06:37:47.777Z,16.23
2023-04-23T06:40:15.163Z,16.10
2023-04-23T06:42:51.736Z,15.96
2023-04-23T06:45:52.779Z,15.84
2023-04-23T06:48:22.115Z,15.91
2023-04-23T06:50:49.542Z,15.80
2023-04-23T06:53:16.715Z,15.75
2023-04-23T06:55:44.216Z,15.66
2023-04-23T06:58:15.545Z,15.78
2023-04-23T07:00:43.457Z,15.73
2023-04-23T07:03:11.446Z,15.58
2023-04-23T07:05:39.742Z,15.41
2023-04-23T07:08:09.630Z,15.28
2023-04-23T07:10:39.131Z,15.31
2023-04-23T07:13:09.475Z,15.43
2023-04-23T07:15:38.038Z,15.56
2023-04-23T07:18:09.879Z,15.38
2023-04-23T07:20:46.594Z,15.29
2023-04-23T07:23:16.593Z,15.13
2023-04-23T07:25:43.750Z,15.00
2023-04-23T07:28:13.884Z,14.86
2023-04-23T07:30:41.089Z,14.87
2023-04-23T07:33:14.181Z,14.94
2023-04-23T07:35:44.291Z,15.07
2023-04-23T07:38:14.507Z,14.86
2023-04-23T07:40:41.679Z,14.96
2023-04-23T07:43:08.820Z,14.92
2023-04-23T07:45:35.945Z,14.77
2023-04-23T07:48:06.435Z,14.90
2023-04-23T07:50:35.061Z,14.67
2023-04-23T07:53:02.213Z,14.64
2023-04-23T07:55:29.435Z,14.80
2023-04-23T07:57:59.522Z,14.99
2023-04-23T08:00:28.725Z,15.07
2023-04-23T08:02:59.865Z,15.23
2023-04-23T08:05:28.506Z,15.13
2023-04-23T08:08:04.837Z,15.32
2023-04-23T08:10:32.626Z,15.23
2023-04-23T08:13:02.507Z,15.31
2023-04-23T08:15:30.071Z,15.53
2023-04-23T08:17:57.260Z,15.87
2023-04-23T08:20:28.032Z,16.03
2023-04-23T08:22:55.809Z,16.30
2023-04-23T08:25:22.874Z,16.38
2023-04-23T08:27:50.131Z,16.92
2023-04-23T08:30:17.395Z,16.42
2023-04-23T08:32:47.340Z,16.76
2023-04-23T08:35:16.305Z,16.30
2023-04-23T08:37:46.241Z,16.34
2023-04-23T08:40:13.887Z,16.16
2023-04-23T08:42:57.376Z,16.40
2023-04-23T08:45:26.718Z,16.31
2023-04-23T08:48:01.580Z,16.43
2023-04-23T08:50:31.157Z,16.41
2023-04-23T08:53:01.980Z,16.22
2023-04-23T08:55:33.866Z,15.98
2023-04-23T08:58:01.629Z,15.72
2023-04-23T09:00:29.848Z,15.51
2023-04-23T09:02:58.648Z,15.44
2023-04-23T09:05:27.350Z,15.20
2023-04-23T09:07:57.819Z,15.17
2023-04-23T09:10:33.878Z,15.19
2023-04-23T09:13:08.874Z,15.50
2023-04-23T09:15:43.724Z,15.74
2023-04-23T09:18:12.253Z,15.84
2023-04-23T09:20:42.532Z,16.12
2023-04-23T09:23:13.773Z,16.28
2023-04-23T09:25:41.936Z,16.43
2023-04-23T09:28:13.727Z,16.41
2023-04-23T09:30:46.058Z,16.76
2023-04-23T09:33:13.997Z,16.82
2023-04-23T09:35:43.376Z,17.06
2023-04-23T09:38:13.491Z,16.82
2023-04-23T09:40:40.922Z,16.27
2023-04-23T09:43:10.630Z,16.53
2023-04-23T09:46:00.878Z,16.86
2023-04-23T09:48:43.041Z,16.51
2023-04-23T09:51:14.298Z,15.87
2023-04-23T09:53:46.266Z,15.62
2023-04-23T09:56:16.928Z,15.74
2023-04-23T09:58:55.079Z,15.78
2023-04-23T10:01:29.313Z,15.92
2023-04-23T10:03:56.997Z,16.01
2023-04-23T10:06:47.071Z,15.86
2023-04-23T10:09:26.522Z,16.12
2023-04-23T10:11:54.795Z,16.43
2023-04-23T10:14:23.068Z,16.52
2023-04-23T10:17:01.985Z,16.62
2023-04-23T10:19:34.558Z,16.39
2023-04-23T10:22:18.678Z,16.40
2023-04-23T10:24:49.194Z,16.36
2023-04-23T10:29:54.200Z,16.62
2023-04-23T10:32:21.794Z,16.75
2023-04-23T10:34:50.797Z,16.13
2023-04-23T10:37:25.290Z,15.98
2023-04-23T10:39:55.709Z,16.25
2023-04-23T10:42:29.230Z,16.38
2023-04-23T10:45:04.807Z,16.35
2023-04-23T10:47:34.696Z,16.13
2023-04-23T10:50:19.044Z,15.93
2023-04-23T10:52:51.443Z,15.48
2023-04-23T10:55:21.584Z,15.21
2023-04-23T10:58:30.336Z,15.37
2023-04-23T11:01:05.146Z,15.21
2023-04-23T11:03:37.310Z,15.39
2023-04-23T11:06:10.474Z,15.46
2023-04-23T11:08:40.765Z,15.22
2023-04-23T11:11:14.184Z,15.44
2023-04-23T11:13:53.111Z,15.59
2023-04-23T11:16:23.993Z,15.37
2023-04-23T11:19:04.954Z,15.24
2023-04-23T11:22:00.115Z,15.11
2023-04-23T11:24:30.298Z,15.03
2023-04-23T11:27:01.306Z,14.85
2023-04-23T11:29:29.025Z,14.94
2023-04-23T11:32:04.335Z,14.93
2023-04-23T11:34:33.855Z,14.84
2023-04-23T11:37:02.545Z,14.70
2023-04-23T11:39:32.361Z,15.26
2023-04-23T11:42:04.207Z,15.59
2023-04-23T11:44:31.907Z,16.17
2023-04-23T11:47:05.204Z,16.51
2023-04-23T11:49:37.850Z,16.21
2023-04-23T11:52:06.599Z,16.39
2023-04-23T11:54:39.904Z,16.55
2023-04-23T11:57:07.238Z,16.76
2023-04-23T11:59:40.570Z,16.29
2023-04-23T12:02:07.898Z,15.85
2023-04-23T12:04:35.260Z,15.74
2023-04-23T12:07:19.324Z,15.77
2023-04-23T12:09:59.438Z,15.71
2023-04-23T12:12:38.978Z,15.50
2023-04-23T12:15:09.512Z,15.36
2023-04-23T12:17:38.480Z,15.38
2023-04-23T12:20:10.028Z,15.26
2023-04-23T12:22:37.287Z,15.43
2023-04-23T12:25:11.631Z,15.60
2023-04-23T12:27:44.711Z,15.76
2023-04-23T12:30:17.879Z,16.13
2023-04-23T12:32:45.466Z,16.54
2023-04-23T12:35:14.077Z,16.70
2023-04-23T12:37:41.103Z,16.73
2023-04-23T12:40:12.768Z,16.94
2023-04-23T12:42:41.575Z,17.53
2023-04-23T12:45:16.678Z,18.30
2023-04-23T12:47:48.372Z,18.33
2023-04-23T12:50:19.068Z,18.89
2023-04-23T12:52:46.401Z,19.18
2023-04-23T12:55:17.452Z,19.67
2023-04-23T12:57:54.384Z,19.08
2023-04-23T13:00:24.560Z,19.50
2023-04-23T13:02:56.644Z,20.33
2023-04-23T13:05:24.598Z,20.21
2023-04-23T13:07:53.616Z,20.32
2023-04-23T13:10:21.027Z,20.41
2023-04-23T13:13:00.729Z,19.88
2023-04-23T13:15:38.482Z,20.00
2023-04-23T13:18:09.045Z,19.39
2023-04-23T13:20:36.613Z,18.88
2023-04-23T13:23:03.876Z,18.63
2023-04-23T13:25:31.080Z,18.52
2023-04-23T13:28:00.789Z,17.76
2023-04-23T13:30:32.993Z,18.11
2023-04-23T13:33:00.214Z,19.00
2023-04-23T13:35:27.859Z,18.87
2023-04-23T13:37:58.935Z,19.10
2023-04-23T13:40:26.655Z,19.19
2023-04-23T13:42:55.721Z,19.14
2023-04-23T13:45:28.339Z,18.37
2023-04-23T13:47:58.224Z,17.96
2023-04-23T13:50:27.640Z,17.76
2023-04-23T13:52:55.366Z,17.81
2023-04-23T13:55:22.596Z,18.10
2023-04-23T13:57:53.415Z,17.93
2023-04-23T14:00:20.879Z,17.47
2023-04-23T14:02:51.035Z,17.26
2023-04-23T14:05:21.141Z,17.00
2023-04-23T14:07:51.002Z,17.02
2023-04-23T14:10:23.600Z,16.93
2023-04-23T14:12:56.771Z,16.89
2023-04-23T14:15:29.050Z,16.76
2023-04-23T14:17:56.371Z,16.79
2023-04-23T14:20:23.760Z,16.88
2023-04-23T14:22:56.752Z,17.22
2023-04-23T14:25:41.512Z,17.17
2023-04-23T14:28:33.444Z,17.19
2023-04-23T14:31:01.738Z,17.26
2023-04-23T14:33:33.291Z,17.55
2023-04-23T14:36:02.336Z,17.17
2023-04-23T14:38:29.469Z,16.90
2023-04-23T14:41:03.161Z,16.72
2023-04-23T14:43:34.112Z,16.69
2023-04-23T14:46:01.831Z,16.73
2023-04-23T14:48:29.299Z,16.82
2023-04-23T14:50:59.063Z,16.81
2023-04-23T14:53:28.335Z,17.06
2023-04-23T14:55:55.749Z,17.52
2023-04-23T14:58:23.525Z,17.54
2023-04-23T15:00:51.213Z,17.53
2023-04-23T15:03:18.725Z,17.32
2023-04-23T15:05:46.297Z,17.24
2023-04-23T15:08:13.481Z,17.32
2023-04-23T15:10:40.965Z,17.46
2023-04-23T15:13:25.628Z,17.14
2023-04-23T15:16:02.464Z,17.10
2023-04-23T15:18:29.865Z,17.29
2023-04-23T15:20:57.119Z,17.51
2023-04-23T15:23:24.693Z,17.75
2023-04-23T15:25:52.882Z,17.56
2023-04-23T15:28:20.145Z,17.60
2023-04-23T15:30:50.361Z,17.70
2023-04-23T15:33:21.621Z,17.54
2023-04-23T15:35:51.037Z,17.96
2023-04-23T15:38:19.875Z,18.63
2023-04-23T15:40:58.383Z,18.58
2023-04-23T15:43:26.923Z,18.66
2023-04-23T15:45:58.663Z,19.29
2023-04-23T15:48:29.021Z,19.54
2023-04-23T15:50:59.393Z,19.11
2023-04-23T15:53:28.072Z,19.13
2023-04-23T15:55:55.388Z,19.20
2023-04-23T15:58:22.565Z,19.31
2023-04-23T16:00:49.891Z,19.18
2023-04-23T16:03:17.185Z,19.02
2023-04-23T16:05:44.962Z,18.97
2023-04-23T16:08:12.103Z,18.57
2023-04-23T16:10:42.996Z,18.21
2023-04-23T16:13:10.295Z,17.70
2023-04-23T16:15:39.859Z,17.46
2023-04-23T16:18:09.927Z,17.21
2023-04-23T16:20:37.257Z,17.26
2023-04-23T16:23:04.639Z,17.31
2023-04-23T16:25:31.818Z,17.06
2023-04-23T16:27:59.059Z,16.95
2023-04-23T16:30:26.310Z,16.79
2023-04-23T16:32:57.058Z,16.59
2023-04-23T16:35:24.285Z,16.49
2023-04-23T16:37:58.651Z,16.30
2023-04-23T16:40:33.681Z,16.16
2023-04-23T16:43:01.377Z,16.11
2023-04-23T16:45:30.768Z,16.20
2023-04-23T16:47:59.796Z,16.15
2023-04-23T16:50:27.641Z,16.39
2023-04-23T16:52:56.183Z,16.38
2023-04-23T16:55:30.336Z,16.35
2023-04-23T16:57:58.746Z,16.36
2023-04-23T17:00:30.391Z,16.49
2023-04-23T17:02:57.851Z,16.61
2023-04-23T17:05:25.783Z,16.58
2023-04-23T17:07:54.416Z,16.32
2023-04-23T17:10:27.190Z,16.28
2023-04-23T17:12:55.398Z,16.03
2023-04-23T17:15:23.038Z,15.98
2023-04-23T17:17:50.513Z,15.98
2023-04-23T17:20:22.262Z,15.94
2023-04-23T17:22:52.909Z,15.84
2023-04-23T17:25:26.691Z,15.67
2023-04-23T17:27:54.627Z,15.61
2023-04-23T17:30:21.995Z,15.50
2023-04-23T17:32:54.341Z,15.43
2023-04-23T17:35:29.546Z,15.38
2023-04-23T17:38:02.757Z,15.31
2023-04-23T17:40:33.363Z,15.19
2023-04-23T17:43:05.159Z,15.05
2023-04-23T17:45:32.333Z,15.01
2023-04-23T17:48:05.447Z,14.87
2023-04-23T17:50:32.681Z,14.63
2023-04-23T17:52:59.824Z,14.54
2023-04-23T17:55:27.272Z,14.51
2023-04-23T17:57:57.509Z,14.41
2023-04-23T18:00:25.475Z,14.38
2023-04-23T18:03:04.244Z,14.23
2023-04-23T18:05:34.382Z,14.06
2023-04-23T18:08:06.870Z,14.16
2023-04-23T18:10:34.205Z,14.03
2023-04-23T18:13:03.399Z,13.97
2023-04-23T18:15:34.073Z,13.94
2023-04-23T18:18:03.848Z,13.93
2023-04-23T18:20:35.102Z,13.90
2023-04-23T18:23:02.442Z,13.87
2023-04-23T18:25:30.336Z,13.85
2023-04-23T18:27:57.474Z,13.87
2023-04-23T18:30:25.726Z,13.81
2023-04-23T18:33:07.504Z,13.77
2023-04-23T18:35:34.870Z,13.82
2023-04-23T18:38:09.789Z,13.70
2023-04-23T18:40:36.955Z,13.68
2023-04-23T18:43:04.071Z,13.73
2023-04-23T18:45:31.743Z,13.66
2023-04-23T18:48:20.808Z,13.73
2023-04-23T18:50:50.978Z,13.76
2023-04-23T18:53:19.795Z,13.83
2023-04-23T18:55:48.092Z,13.76
2023-04-23T18:58:15.493Z,13.67
2023-04-23T19:00:42.620Z,13.65
2023-04-23T19:03:23.659Z,13.63
2023-04-23T19:05:52.986Z,13.61
2023-04-23T19:08:22.048Z,13.63
2023-04-23T19:10:49.127Z,13.53
2023-04-23T19:13:16.870Z,13.43
2023-04-23T19:15:44.024Z,13.43
2023-04-23T19:18:11.275Z,13.38
2023-04-23T19:20:38.786Z,13.38
2023-04-23T19:23:09.719Z,13.24
2023-04-23T19:25:37.173Z,13.25
2023-04-23T19:28:04.326Z,13.14
2023-04-23T19:30:32.467Z,13.08
2023-04-23T19:33:00.198Z,13.01
2023-04-23T19:35:30.536Z,12.88
2023-04-23T19:37:57.599Z,12.90
2023-04-23T19:40:24.747Z,12.78
2023-04-23T19:42:51.828Z,12.75
2023-04-23T19:45:19.086Z,12.58
2023-04-23T19:47:46.616Z,12.51
2023-04-23T19:50:20.075Z,12.59
2023-04-23T19:52:47.240Z,12.65
2023-04-23T19:55:14.577Z,12.52
2023-04-23T19:57:43.033Z,12.44
2023-04-23T20:00:16.733Z,12.36
2023-04-23T20:02:46.807Z,12.24
2023-04-23T20:05:16.165Z,12.11
2023-04-23T20:07:47.507Z,12.01
2023-04-23T20:10:16.290Z,11.94
2023-04-23T20:12:47.405Z,11.96
2023-04-23T20:15:24.411Z,11.98
2023-04-23T20:17:52.128Z,11.92
2023-04-23T20:20:21.591Z,11.95
2023-04-23T20:22:48.870Z,11.96
2023-04-23T20:25:22.975Z,11.94
2023-04-23T20:27:51.548Z,11.94
2023-04-23T20:30:18.955Z,11.90
2023-04-23T20:32:52.678Z,11.86
2023-04-23T20:35:20.548Z,11.86
2023-04-23T20:37:54.547Z,11.78
2023-04-23T20:40:21.849Z,11.75
2023-04-23T20:42:51.641Z,11.66
2023-04-23T20:45:19.256Z,11.63
2023-04-23T20:47:47.399Z,11.65
2023-04-23T20:50:17.555Z,11.68
2023-04-23T20:52:49.575Z,11.75
2023-04-23T20:55:16.775Z,11.81
2023-04-23T20:57:43.943Z,11.80
2023-04-23T21:00:12.104Z,11.79
2023-04-23T21:02:39.559Z,11.78
2023-04-23T21:05:07.833Z,11.76
2023-04-23T21:07:36.672Z,11.76
2023-04-23T21:10:04.977Z,11.76
2023-04-23T21:12:32.818Z,11.76
2023-04-23T21:14:59.974Z,11.78
2023-04-23T21:17:26.998Z,11.78
2023-04-23T21:19:54.156Z,11.79
2023-04-23T21:22:21.356Z,11.77
2023-04-23T21:24:48.501Z,11.78
2023-04-23T21:27:21.484Z,11.72
2023-04-23T21:29:49.202Z,11.65
2023-04-23T21:32:17.272Z,11.56
2023-04-23T21:34:44.817Z,11.51
2023-04-23T21:37:12.403Z,11.54
2023-04-23T21:39:39.726Z,11.51
2023-04-23T21:42:07.385Z,11.53
2023-04-23T21:44:36.600Z,11.51
2023-04-23T21:47:04.141Z,11.48
2023-04-23T21:49:32.832Z,11.41
2023-04-23T21:52:01.565Z,11.38
2023-04-23T21:54:28.916Z,11.34
2023-04-23T21:56:59.203Z,11.35
2023-04-23T21:59:26.358Z,11.35
2023-04-23T22:01:53.480Z,11.34
2023-04-23T22:04:22.458Z,11.32
2023-04-23T22:06:51.248Z,11.30
2023-04-23T22:09:18.939Z,11.35
2023-04-23T22:12:01.197Z,11.32
2023-04-23T22:14:29.000Z,11.31
2023-04-23T22:16:58.659Z,11.30
2023-04-23T22:19:26.102Z,11.30
2023-04-23T22:21:56.926Z,11.33
2023-04-23T22:24:24.220Z,11.33
2023-04-23T22:26:51.898Z,11.31
2023-04-23T22:29:19.097Z,11.32
2023-04-23T22:31:46.392Z,11.33
2023-04-23T22:34:13.587Z,11.33
2023-04-23T22:36:43.253Z,11.37
2023-04-23T22:39:10.818Z,11.37
2023-04-23T22:41:40.123Z,11.37
2023-04-23T22:44:07.461Z,11.41
2023-04-23T22:46:34.852Z,11.43
2023-04-23T22:49:02.827Z,11.46
2023-04-23T22:51:33.611Z,11.45
2023-04-23T22:54:00.780Z,11.43
2023-04-23T22:56:27.959Z,11.46
2023-04-23T22:58:55.031Z,11.43
2023-04-23T23:01:22.249Z,11.43
2023-04-23T23:03:49.491Z,11.43
2023-04-23T23:06:18.063Z,11.40
2023-04-23T23:08:45.990Z,11.38
2023-04-23T23:11:12.970Z,11.40
2023-04-23T23:13:40.693Z,11.31
2023-04-23T23:16:08.077Z,11.31
2023-04-23T23:18:35.314Z,11.28
2023-04-23T23:21:02.746Z,11.28
2023-04-23T23:23:30.552Z,11.27
2023-04-23T23:25:59.859Z,11.28
2023-04-23T23:28:27.503Z,11.23
2023-04-23T23:30:55.736Z,11.20
2023-04-23T23:33:23.698Z,11.16
2023-04-23T23:35:50.998Z,11.14
2023-04-23T23:38:17.980Z,11.13
2023-04-23T23:40:45.053Z,11.10
2023-04-23T23:43:13.337Z,11.10
2023-04-23T23:45:40.487Z,11.08
2023-04-23T23:48:07.810Z,11.05
2023-04-23T23:50:35.226Z,11.04
2023-04-23T23:53:02.314Z,11.02
2023-04-23T23:55:29.422Z,11.04
2023-04-23T23:57:56.524Z,11.04
